sensor_id;sensor_type;location;lat;lon;timestamp;temperature;humidity
62912;DHT22;49111;51.028;4.218;2023-03-01T06:47:45;1.50;99.90
62912;DHT22;49111;51.028;4.218;2023-03-01T06:50:13;0.80;99.90
62912;DHT22;49111;51.028;4.218;2023-03-01T06:52:39;0.70;99.90
62912;DHT22;49111;51.028;4.218;2023-03-01T06:55:05;0.80;99.90
62912;DHT22;49111;51.028;4.218;2023-03-01T06:57:31;0.80;99.90
62912;DHT22;49111;51.028;4.218;2023-03-01T06:59:57;0.80;99.90
62912;DHT22;49111;51.028;4.218;2023-03-01T07:02:23;0.80;99.90
62912;DHT22;49111;51.028;4.218;2023-03-01T07:04:50;0.80;99.90
62912;DHT22;49111;51.028;4.218;2023-03-01T07:07:16;0.80;99.90
62912;DHT22;49111;51.028;4.218;2023-03-01T07:09:51;0.80;99.90
62912;DHT22;49111;51.028;4.218;2023-03-01T07:12:30;0.90;99.90
62912;DHT22;49111;51.028;4.218;2023-03-01T07:18:30;0.90;99.90
62912;DHT22;49111;51.028;4.218;2023-03-01T07:21:07;1.00;99.90
62912;DHT22;49111;51.028;4.218;2023-03-01T07:23:36;1.00;99.90
62912;DHT22;49111;51.028;4.218;2023-03-01T07:26:36;1.00;99.90
62912;DHT22;49111;51.028;4.218;2023-03-01T07:29:10;1.10;99.90
62912;DHT22;49111;51.028;4.218;2023-03-01T07:35:11;1.20;99.90
62912;DHT22;49111;51.028;4.218;2023-03-01T07:37:48;1.20;99.90
62912;DHT22;49111;51.028;4.218;2023-03-01T07:40:17;1.30;99.90
62912;DHT22;49111;51.028;4.218;2023-03-01T07:47:04;1.40;99.90
62912;DHT22;49111;51.028;4.218;2023-03-01T07:49:30;1.40;99.90
62912;DHT22;49111;51.028;4.218;2023-03-01T07:52:27;1.40;99.90
62912;DHT22;49111;51.028;4.218;2023-03-01T07:55:00;1.60;99.90
62912;DHT22;49111;51.028;4.218;2023-03-01T07:57:58;1.60;99.90
62912;DHT22;49111;51.028;4.218;2023-03-01T08:01:08;1.60;99.90
62912;DHT22;49111;51.028;4.218;2023-03-01T08:03:38;1.70;99.90
62912;DHT22;49111;51.028;4.218;2023-03-01T08:06:08;1.70;99.90
62912;DHT22;49111;51.028;4.218;2023-03-01T08:08:40;1.70;99.90
62912;DHT22;49111;51.028;4.218;2023-03-01T08:11:07;1.80;99.90
62912;DHT22;49111;51.028;4.218;2023-03-01T08:13:33;1.80;99.90
62912;DHT22;49111;51.028;4.218;2023-03-01T08:16:13;1.80;99.90
62912;DHT22;49111;51.028;4.218;2023-03-01T08:18:40;1.80;99.90
62912;DHT22;49111;51.028;4.218;2023-03-01T08:25:16;1.90;99.90
62912;DHT22;49111;51.028;4.218;2023-03-01T08:27:49;1.90;99.90
62912;DHT22;49111;51.028;4.218;2023-03-01T08:30:15;2.00;99.90
62912;DHT22;49111;51.028;4.218;2023-03-01T08:32:46;2.00;99.90
62912;DHT22;49111;51.028;4.218;2023-03-01T08:35:12;2.10;99.90
62912;DHT22;49111;51.028;4.218;2023-03-01T08:37:39;2.10;99.90
62912;DHT22;49111;51.028;4.218;2023-03-01T08:40:06;2.10;99.90
62912;DHT22;49111;51.028;4.218;2023-03-01T08:42:40;2.20;99.90
62912;DHT22;49111;51.028;4.218;2023-03-01T08:45:11;2.30;99.90
62912;DHT22;49111;51.028;4.218;2023-03-01T08:48:11;2.30;99.90
62912;DHT22;49111;51.028;4.218;2023-03-01T08:51:19;2.30;99.90
62912;DHT22;49111;51.028;4.218;2023-03-01T08:54:24;2.40;99.90
62912;DHT22;49111;51.028;4.218;2023-03-01T08:57:25;2.40;99.90
62912;DHT22;49111;51.028;4.218;2023-03-01T09:00:00;2.50;99.90
62912;DHT22;49111;51.028;4.218;2023-03-01T09:02:59;2.60;99.90
62912;DHT22;49111;51.028;4.218;2023-03-01T09:05:59;2.70;99.90
62912;DHT22;49111;51.028;4.218;2023-03-01T09:08:58;2.80;99.90
62912;DHT22;49111;51.028;4.218;2023-03-01T09:11:32;2.70;99.90
62912;DHT22;49111;51.028;4.218;2023-03-01T09:14:14;2.80;99.90
62912;DHT22;49111;51.028;4.218;2023-03-01T09:16:50;2.80;99.90
62912;DHT22;49111;51.028;4.218;2023-03-01T09:19:51;2.90;99.90
62912;DHT22;49111;51.028;4.218;2023-03-01T09:22:58;2.90;99.90
62912;DHT22;49111;51.028;4.218;2023-03-01T09:25:34;3.00;99.90
62912;DHT22;49111;51.028;4.218;2023-03-01T09:28:00;3.10;99.90
62912;DHT22;49111;51.028;4.218;2023-03-01T09:30:27;3.20;99.90
62912;DHT22;49111;51.028;4.218;2023-03-01T09:32:57;3.30;99.90
62912;DHT22;49111;51.028;4.218;2023-03-01T09:35:23;3.40;99.40
62912;DHT22;49111;51.028;4.218;2023-03-01T09:37:49;3.50;99.20
62912;DHT22;49111;51.028;4.218;2023-03-01T09:40:26;4.20;99.00
62912;DHT22;49111;51.028;4.218;2023-03-01T09:43:11;4.10;99.20
62912;DHT22;49111;51.028;4.218;2023-03-01T09:45:43;4.00;98.00
62912;DHT22;49111;51.028;4.218;2023-03-01T09:48:16;3.80;98.20
62912;DHT22;49111;51.028;4.218;2023-03-01T09:50:45;3.90;98.20
62912;DHT22;49111;51.028;4.218;2023-03-01T09:53:21;4.00;97.70
62912;DHT22;49111;51.028;4.218;2023-03-01T09:56:05;4.10;97.00
62912;DHT22;49111;51.028;4.218;2023-03-01T09:58:55;4.00;97.20
62912;DHT22;49111;51.028;4.218;2023-03-01T10:01:48;4.10;96.50
62912;DHT22;49111;51.028;4.218;2023-03-01T10:09:38;4.30;96.40
62912;DHT22;49111;51.028;4.218;2023-03-01T10:12:32;4.30;96.30
62912;DHT22;49111;51.028;4.218;2023-03-01T10:15:18;4.40;95.10
62912;DHT22;49111;51.028;4.218;2023-03-01T10:18:04;4.50;95.60
62912;DHT22;49111;51.028;4.218;2023-03-01T10:20:58;4.60;96.20
62912;DHT22;49111;51.028;4.218;2023-03-01T10:23:26;4.70;95.10
62912;DHT22;49111;51.028;4.218;2023-03-01T10:26:00;5.10;94.90
62912;DHT22;49111;51.028;4.218;2023-03-01T10:28:37;4.80;95.30
62912;DHT22;49111;51.028;4.218;2023-03-01T10:31:05;4.90;95.00
62912;DHT22;49111;51.028;4.218;2023-03-01T10:33:38;5.20;93.20
62912;DHT22;49111;51.028;4.218;2023-03-01T10:36:05;5.30;93.60
62912;DHT22;49111;51.028;4.218;2023-03-01T10:38:53;5.00;93.00
62912;DHT22;49111;51.028;4.218;2023-03-01T10:41:21;5.10;93.20
62912;DHT22;49111;51.028;4.218;2023-03-01T10:43:53;5.10;93.80
62912;DHT22;49111;51.028;4.218;2023-03-01T10:46:31;5.30;93.40
62912;DHT22;49111;51.028;4.218;2023-03-01T10:49:18;5.30;93.10
62912;DHT22;49111;51.028;4.218;2023-03-01T10:51:46;5.50;93.20
62912;DHT22;49111;51.028;4.218;2023-03-01T10:54:28;5.60;92.30
62912;DHT22;49111;51.028;4.218;2023-03-01T10:56:56;5.70;91.60
62912;DHT22;49111;51.028;4.218;2023-03-01T11:02:15;5.80;91.10
62912;DHT22;49111;51.028;4.218;2023-03-01T11:07:22;5.90;90.40
62912;DHT22;49111;51.028;4.218;2023-03-01T11:09:52;5.90;90.10
62912;DHT22;49111;51.028;4.218;2023-03-01T11:12:18;6.00;90.30
62912;DHT22;49111;51.028;4.218;2023-03-01T11:14:51;6.30;90.60
62912;DHT22;49111;51.028;4.218;2023-03-01T11:17:29;6.30;90.50
62912;DHT22;49111;51.028;4.218;2023-03-01T11:22:53;6.80;88.50
62912;DHT22;49111;51.028;4.218;2023-03-01T11:25:30;6.50;86.40
62912;DHT22;49111;51.028;4.218;2023-03-01T11:27:58;6.50;87.10
62912;DHT22;49111;51.028;4.218;2023-03-01T11:30:38;6.50;89.00
62912;DHT22;49111;51.028;4.218;2023-03-01T11:33:15;6.70;86.60
62912;DHT22;49111;51.028;4.218;2023-03-01T11:38:44;6.80;84.20
62912;DHT22;49111;51.028;4.218;2023-03-01T11:43:52;7.00;83.70
62912;DHT22;49111;51.028;4.218;2023-03-01T12:16:40;8.10;76.90
62912;DHT22;49111;51.028;4.218;2023-03-01T12:33:24;8.40;75.70
62912;DHT22;49111;51.028;4.218;2023-03-01T12:41:51;8.60;74.60
62912;DHT22;49111;51.028;4.218;2023-03-01T12:44:52;8.60;73.20
62912;DHT22;49111;51.028;4.218;2023-03-01T12:50:41;8.80;75.10
62912;DHT22;49111;51.028;4.218;2023-03-01T12:55:43;9.00;74.10
62912;DHT22;49111;51.028;4.218;2023-03-01T12:58:24;8.90;72.00
62912;DHT22;49111;51.028;4.218;2023-03-01T13:01:08;8.90;72.00
62912;DHT22;49111;51.028;4.218;2023-03-01T13:10:26;9.10;72.30
62912;DHT22;49111;51.028;4.218;2023-03-01T13:17:54;9.30;71.20
62912;DHT22;49111;51.028;4.218;2023-03-01T13:20:24;9.30;71.70
62912;DHT22;49111;51.028;4.218;2023-03-01T13:23:05;9.30;72.00
62912;DHT22;49111;51.028;4.218;2023-03-01T13:25:32;9.40;71.20
62912;DHT22;49111;51.028;4.218;2023-03-01T13:28:36;9.50;70.80
62912;DHT22;49111;51.028;4.218;2023-03-01T13:31:08;9.60;71.00
62912;DHT22;49111;51.028;4.218;2023-03-01T13:33:57;9.80;70.00
62912;DHT22;49111;51.028;4.218;2023-03-01T13:38:57;9.70;68.00
62912;DHT22;49111;51.028;4.218;2023-03-01T13:46:38;9.50;69.20
62912;DHT22;49111;51.028;4.218;2023-03-01T13:49:05;9.70;67.10
62912;DHT22;49111;51.028;4.218;2023-03-01T13:51:37;9.80;67.80
62912;DHT22;49111;51.028;4.218;2023-03-01T13:54:03;9.90;67.90
62912;DHT22;49111;51.028;4.218;2023-03-01T13:56:36;10.00;67.40
62912;DHT22;49111;51.028;4.218;2023-03-01T13:59:05;10.00;66.80
62912;DHT22;49111;51.028;4.218;2023-03-01T14:01:35;9.80;67.50
62912;DHT22;49111;51.028;4.218;2023-03-01T14:04:22;9.80;68.90
62912;DHT22;49111;51.028;4.218;2023-03-01T14:06:48;9.90;67.20
62912;DHT22;49111;51.028;4.218;2023-03-01T14:09:23;10.00;66.80
62912;DHT22;49111;51.028;4.218;2023-03-01T14:12:14;10.00;66.60
62912;DHT22;49111;51.028;4.218;2023-03-01T14:20:23;9.70;66.60
62912;DHT22;49111;51.028;4.218;2023-03-01T14:22:52;9.80;65.80
62912;DHT22;49111;51.028;4.218;2023-03-01T14:25:25;9.90;66.00
62912;DHT22;49111;51.028;4.218;2023-03-01T14:30:44;9.70;66.80
62912;DHT22;49111;51.028;4.218;2023-03-01T14:33:34;9.70;66.60
62912;DHT22;49111;51.028;4.218;2023-03-01T14:36:07;9.60;66.70
62912;DHT22;49111;51.028;4.218;2023-03-01T14:38:39;9.70;66.80
62912;DHT22;49111;51.028;4.218;2023-03-01T14:43:37;9.70;66.70
62912;DHT22;49111;51.028;4.218;2023-03-01T14:46:04;9.80;66.60
62912;DHT22;49111;51.028;4.218;2023-03-01T14:48:31;9.70;66.50
62912;DHT22;49111;51.028;4.218;2023-03-01T14:50:57;9.80;66.60
62912;DHT22;49111;51.028;4.218;2023-03-01T14:53:26;9.60;66.50
62912;DHT22;49111;51.028;4.218;2023-03-01T14:56:00;9.60;66.60
62912;DHT22;49111;51.028;4.218;2023-03-01T14:58:32;9.70;67.00
62912;DHT22;49111;51.028;4.218;2023-03-01T15:01:01;9.70;66.30
62912;DHT22;49111;51.028;4.218;2023-03-01T15:05:58;9.60;66.80
62912;DHT22;49111;51.028;4.218;2023-03-01T15:08:26;9.70;67.40
62912;DHT22;49111;51.028;4.218;2023-03-01T15:11:01;9.70;65.80
62912;DHT22;49111;51.028;4.218;2023-03-01T15:13:33;9.80;65.80
62912;DHT22;49111;51.028;4.218;2023-03-01T15:16:11;9.80;65.80
62912;DHT22;49111;51.028;4.218;2023-03-01T15:18:46;9.80;66.00
62912;DHT22;49111;51.028;4.218;2023-03-01T15:21:22;9.70;65.80
62912;DHT22;49111;51.028;4.218;2023-03-01T15:23:51;9.60;67.10
62912;DHT22;49111;51.028;4.218;2023-03-01T15:26:41;9.40;66.40
62912;DHT22;49111;51.028;4.218;2023-03-01T15:29:19;9.60;66.30
62912;DHT22;49111;51.028;4.218;2023-03-01T15:32:06;9.60;66.00
62912;DHT22;49111;51.028;4.218;2023-03-01T15:34:33;9.60;66.10
62912;DHT22;49111;51.028;4.218;2023-03-01T15:37:02;9.40;66.00
62912;DHT22;49111;51.028;4.218;2023-03-01T15:41:59;9.20;66.60
62912;DHT22;49111;51.028;4.218;2023-03-01T15:44:37;9.30;67.60
62912;DHT22;49111;51.028;4.218;2023-03-01T15:47:29;9.50;67.50
62912;DHT22;49111;51.028;4.218;2023-03-01T15:49:57;9.60;67.50
62912;DHT22;49111;51.028;4.218;2023-03-01T15:52:35;9.50;66.80
62912;DHT22;49111;51.028;4.218;2023-03-01T15:55:26;9.40;66.60
62912;DHT22;49111;51.028;4.218;2023-03-01T15:58:21;9.40;66.70
62912;DHT22;49111;51.028;4.218;2023-03-01T16:00:48;9.40;66.90
62912;DHT22;49111;51.028;4.218;2023-03-01T16:03:17;9.40;66.90
62912;DHT22;49111;51.028;4.218;2023-03-01T16:05:47;9.30;67.30
62912;DHT22;49111;51.028;4.218;2023-03-01T16:08:16;9.10;67.50
62912;DHT22;49111;51.028;4.218;2023-03-01T16:10:42;9.10;68.10
62912;DHT22;49111;51.028;4.218;2023-03-01T16:13:14;9.00;68.60
62912;DHT22;49111;51.028;4.218;2023-03-01T16:15:40;9.00;68.50
62912;DHT22;49111;51.028;4.218;2023-03-01T16:18:06;8.90;68.30
62912;DHT22;49111;51.028;4.218;2023-03-01T16:20:34;8.90;68.40
62912;DHT22;49111;51.028;4.218;2023-03-01T16:23:06;8.80;69.00
62912;DHT22;49111;51.028;4.218;2023-03-01T16:25:33;8.80;69.50
62912;DHT22;49111;51.028;4.218;2023-03-01T16:27:59;8.80;68.40
62912;DHT22;49111;51.028;4.218;2023-03-01T16:30:26;8.70;68.70
62912;DHT22;49111;51.028;4.218;2023-03-01T16:32:52;8.70;69.20
62912;DHT22;49111;51.028;4.218;2023-03-01T16:35:20;8.70;69.00
62912;DHT22;49111;51.028;4.218;2023-03-01T16:37:48;8.60;69.40
62912;DHT22;49111;51.028;4.218;2023-03-01T16:43:52;8.60;68.80
62912;DHT22;49111;51.028;4.218;2023-03-01T16:46:19;8.40;68.90
62912;DHT22;49111;51.028;4.218;2023-03-01T16:48:46;8.30;69.30
62912;DHT22;49111;51.028;4.218;2023-03-01T16:51:12;8.20;69.40
62912;DHT22;49111;51.028;4.218;2023-03-01T16:53:38;8.10;70.00
62912;DHT22;49111;51.028;4.218;2023-03-01T16:56:06;8.10;70.00
62912;DHT22;49111;51.028;4.218;2023-03-01T16:58:34;8.00;70.40
62912;DHT22;49111;51.028;4.218;2023-03-01T17:01:08;8.00;71.00
62912;DHT22;49111;51.028;4.218;2023-03-01T17:03:34;8.10;71.20
62912;DHT22;49111;51.028;4.218;2023-03-01T17:06:05;8.10;71.80
62912;DHT22;49111;51.028;4.218;2023-03-01T17:08:32;8.10;71.30
62912;DHT22;49111;51.028;4.218;2023-03-01T17:11:07;8.00;71.20
62912;DHT22;49111;51.028;4.218;2023-03-01T17:13:34;7.80;71.00
62912;DHT22;49111;51.028;4.218;2023-03-01T17:16:03;7.80;71.40
62912;DHT22;49111;51.028;4.218;2023-03-01T17:18:29;7.80;71.70
62912;DHT22;49111;51.028;4.218;2023-03-01T17:20:54;7.80;71.70
62912;DHT22;49111;51.028;4.218;2023-03-01T17:23:20;7.70;71.60
62912;DHT22;49111;51.028;4.218;2023-03-01T17:25:46;7.80;71.60
62912;DHT22;49111;51.028;4.218;2023-03-01T17:28:13;7.70;71.60
62912;DHT22;49111;51.028;4.218;2023-03-01T17:30:45;7.70;72.20
62912;DHT22;49111;51.028;4.218;2023-03-01T17:33:13;7.70;72.40
62912;DHT22;49111;51.028;4.218;2023-03-01T17:35:38;7.70;72.60
62912;DHT22;49111;51.028;4.218;2023-03-01T17:38:05;7.70;72.70
62912;DHT22;49111;51.028;4.218;2023-03-01T17:40:32;7.60;72.70
62912;DHT22;49111;51.028;4.218;2023-03-01T17:42:57;7.60;73.20
62912;DHT22;49111;51.028;4.218;2023-03-01T17:45:24;7.50;72.80
62912;DHT22;49111;51.028;4.218;2023-03-01T17:47:50;7.50;72.70
62912;DHT22;49111;51.028;4.218;2023-03-01T17:50:15;7.40;73.10
62912;DHT22;49111;51.028;4.218;2023-03-01T17:52:41;7.50;73.70
62912;DHT22;49111;51.028;4.218;2023-03-01T17:55:08;7.30;73.70
62912;DHT22;49111;51.028;4.218;2023-03-01T17:57:37;7.20;73.70
62912;DHT22;49111;51.028;4.218;2023-03-01T18:00:03;7.30;73.90
62912;DHT22;49111;51.028;4.218;2023-03-01T18:02:37;7.20;73.80
62912;DHT22;49111;51.028;4.218;2023-03-01T18:05:03;7.20;74.00
62912;DHT22;49111;51.028;4.218;2023-03-01T18:07:28;7.10;74.20
62912;DHT22;49111;51.028;4.218;2023-03-01T18:09:55;7.20;74.30
62912;DHT22;49111;51.028;4.218;2023-03-01T18:12:20;7.10;74.60
62912;DHT22;49111;51.028;4.218;2023-03-01T18:14:48;7.10;74.70
62912;DHT22;49111;51.028;4.218;2023-03-01T18:17:19;7.00;75.00
62912;DHT22;49111;51.028;4.218;2023-03-01T18:19:45;7.10;75.20
62912;DHT22;49111;51.028;4.218;2023-03-01T18:22:11;6.90;75.30
62912;DHT22;49111;51.028;4.218;2023-03-01T18:24:37;6.80;75.40
62912;DHT22;49111;51.028;4.218;2023-03-01T18:27:03;6.80;75.70
62912;DHT22;49111;51.028;4.218;2023-03-01T18:29:29;6.80;75.50
62912;DHT22;49111;51.028;4.218;2023-03-01T18:31:55;6.70;75.50
62912;DHT22;49111;51.028;4.218;2023-03-01T18:34:20;6.70;75.80
62912;DHT22;49111;51.028;4.218;2023-03-01T18:36:47;6.80;76.10
62912;DHT22;49111;51.028;4.218;2023-03-01T18:39:17;6.70;75.60
62912;DHT22;49111;51.028;4.218;2023-03-01T18:41:44;7.00;76.00
62912;DHT22;49111;51.028;4.218;2023-03-01T18:44:09;6.80;76.30
62912;DHT22;49111;51.028;4.218;2023-03-01T18:46:36;6.90;76.40
62912;DHT22;49111;51.028;4.218;2023-03-01T18:49:03;6.60;76.20
62912;DHT22;49111;51.028;4.218;2023-03-01T18:51:29;6.90;76.40
62912;DHT22;49111;51.028;4.218;2023-03-01T18:53:57;6.50;76.40
62912;DHT22;49111;51.028;4.218;2023-03-01T18:56:28;6.50;76.50
62912;DHT22;49111;51.028;4.218;2023-03-01T18:58:54;6.50;77.00
62912;DHT22;49111;51.028;4.218;2023-03-01T19:01:23;6.50;77.30
62912;DHT22;49111;51.028;4.218;2023-03-01T19:03:50;6.50;77.20
62912;DHT22;49111;51.028;4.218;2023-03-01T19:06:16;6.40;77.30
62912;DHT22;49111;51.028;4.218;2023-03-01T19:08:42;6.40;77.40
62912;DHT22;49111;51.028;4.218;2023-03-01T19:11:10;6.30;77.90
62912;DHT22;49111;51.028;4.218;2023-03-01T19:13:37;6.20;78.20
62912;DHT22;49111;51.028;4.218;2023-03-01T19:16:09;6.20;78.40
62912;DHT22;49111;51.028;4.218;2023-03-01T19:18:36;6.10;78.40
62912;DHT22;49111;51.028;4.218;2023-03-01T19:21:04;6.10;78.70
62912;DHT22;49111;51.028;4.218;2023-03-01T19:23:31;6.00;78.80
62912;DHT22;49111;51.028;4.218;2023-03-01T19:26:02;6.00;78.90
